Terminal Aerodrome Forecast
Issued by NWS Quad Cities IA IL

Home | Current Version | Previous Version | Text Only | Print | Product List | Glossary On
Versions: 1 2 3 4 5 6 7 8 9 10 11 12 13 14 15 16 17 18 19 20 21 22 23 24
000
FTUS43 KDVN 280300 AAA
TAFDBQ
TAF AMD
KDBQ 280325Z 2803/2824 16006KT 6SM BR OVC015
      TEMPO 2806/2810 5SM BR
     FM281400 15013G20KT P6SM BKN025
     FM281800 15017G25KT P6SM BKN150=

USA.gov is the U.S. government's official web portal to all federal, state and local government web resources and services.